createdAt,value
2023-05-07T00:01:30.645Z,21.23
2023-05-07T00:04:00.086Z,23.60
2023-05-07T00:06:29.961Z,24.67
2023-05-07T00:08:58.562Z,21.60
2023-05-07T00:11:26.805Z,14.93
2023-05-07T00:13:54.711Z,21.83
2023-05-07T00:16:22.650Z,14.80
2023-05-07T00:18:50.563Z,13.20
2023-05-07T00:21:19.817Z,17.97
2023-05-07T00:23:47.713Z,13.70
2023-05-07T00:26:15.589Z,21.60
2023-05-07T00:28:43.551Z,14.23
2023-05-07T00:31:11.410Z,18.00
2023-05-07T00:33:40.044Z,16.07
2023-05-07T00:36:08.470Z,18.40
2023-05-07T00:38:37.723Z,14.27
2023-05-07T00:41:06.269Z,20.07
2023-05-07T00:43:34.195Z,28.90
2023-05-07T00:46:02.208Z,19.20
2023-05-07T00:48:30.139Z,17.07
2023-05-07T00:50:58.369Z,16.67
2023-05-07T00:53:27.665Z,15.00
2023-05-07T00:55:57.066Z,16.67
2023-05-07T00:58:24.923Z,20.43
2023-05-07T01:00:52.852Z,21.13
2023-05-07T01:03:20.822Z,17.73
2023-05-07T01:05:49.156Z,19.37
2023-05-07T01:08:17.459Z,30.33
2023-05-07T01:10:45.350Z,20.67
2023-05-07T01:13:14.774Z,20.50
2023-05-07T01:15:42.776Z,26.07
2023-05-07T01:18:10.735Z,19.80
2023-05-07T01:20:38.658Z,22.83
2023-05-07T01:23:07.898Z,26.63
2023-05-07T01:25:35.779Z,23.63
2023-05-07T01:28:03.632Z,23.43
2023-05-07T01:30:31.653Z,20.87
2023-05-07T01:33:01.266Z,21.23
2023-05-07T01:35:32.315Z,23.03
2023-05-07T01:38:00.197Z,21.50
2023-05-07T01:40:29.446Z,19.53
2023-05-07T01:42:57.311Z,20.63
2023-05-07T01:45:25.222Z,22.00
2023-05-07T01:47:53.166Z,15.30
2023-05-07T01:50:21.205Z,20.27
2023-05-07T01:52:49.300Z,18.23
2023-05-07T01:55:17.178Z,17.33
2023-05-07T01:57:46.677Z,17.87
2023-05-07T02:00:14.977Z,19.77
2023-05-07T02:02:43.022Z,19.40
2023-05-07T02:05:11.218Z,23.37
2023-05-07T02:07:39.093Z,17.67
2023-05-07T02:10:08.267Z,21.57
2023-05-07T02:12:36.303Z,21.17
2023-05-07T02:15:06.632Z,27.37
2023-05-07T02:17:34.968Z,24.73
2023-05-07T02:20:02.919Z,20.27
2023-05-07T02:22:31.323Z,17.77
2023-05-07T02:24:59.259Z,23.90
2023-05-07T02:27:27.109Z,23.40
2023-05-07T02:29:54.948Z,17.80
2023-05-07T02:32:24.342Z,24.87
2023-05-07T02:34:52.651Z,20.97
2023-05-07T02:37:20.567Z,30.03
2023-05-07T02:39:48.439Z,29.17
2023-05-07T02:42:16.330Z,20.40
2023-05-07T02:44:44.172Z,17.70
2023-05-07T02:47:14.089Z,28.00
2023-05-07T02:49:43.670Z,21.90
2023-05-07T02:52:11.564Z,21.97
2023-05-07T02:54:39.411Z,20.40
2023-05-07T02:57:07.287Z,25.63
2023-05-07T02:59:35.162Z,19.77
2023-05-07T03:02:03.046Z,25.00
2023-05-07T03:04:31.155Z,24.93
2023-05-07T03:07:00.451Z,24.77
2023-05-07T03:09:28.356Z,19.30
2023-05-07T03:11:56.422Z,22.90
2023-05-07T03:14:24.278Z,26.33
2023-05-07T03:16:52.215Z,24.27
2023-05-07T03:19:20.101Z,17.90
2023-05-07T03:21:48.335Z,31.57
2023-05-07T03:24:17.678Z,29.57
2023-05-07T03:26:45.580Z,32.20
2023-05-07T03:29:13.614Z,27.30
2023-05-07T03:31:41.512Z,28.57
2023-05-07T03:34:09.452Z,18.27
2023-05-07T03:36:37.386Z,17.50
2023-05-07T03:39:05.322Z,20.83
2023-05-07T03:41:34.585Z,20.47
2023-05-07T03:44:02.470Z,24.07
2023-05-07T03:46:30.366Z,22.83
2023-05-07T03:48:58.258Z,21.60
2023-05-07T03:51:26.424Z,23.10
2023-05-07T03:53:54.740Z,22.80
2023-05-07T03:56:22.977Z,20.00
2023-05-07T03:58:52.266Z,26.23
2023-05-07T04:01:20.143Z,18.87
2023-05-07T04:03:48.600Z,24.43
2023-05-07T04:06:18.388Z,17.00
2023-05-07T04:08:46.307Z,21.20
2023-05-07T04:11:14.177Z,18.47
2023-05-07T04:13:42.059Z,20.43
2023-05-07T04:16:11.349Z,23.93
2023-05-07T04:18:39.272Z,19.63
2023-05-07T04:21:07.494Z,20.00
2023-05-07T04:23:35.392Z,14.27
2023-05-07T04:26:04.207Z,20.07
2023-05-07T04:28:32.084Z,23.23
2023-05-07T04:30:59.971Z,25.43
2023-05-07T04:33:29.212Z,15.87
2023-05-07T04:35:57.472Z,30.90
2023-05-07T04:38:25.585Z,26.47
2023-05-07T04:40:54.010Z,24.13
2023-05-07T04:43:21.830Z,25.70
2023-05-07T04:45:50.381Z,22.23
2023-05-07T04:48:20.290Z,26.80
2023-05-07T04:50:51.015Z,33.40
2023-05-07T04:53:19.016Z,31.33
2023-05-07T04:55:47.049Z,27.37
2023-05-07T04:58:14.920Z,27.20
2023-05-07T05:00:43.433Z,25.97
2023-05-07T05:03:11.437Z,23.77
2023-05-07T05:05:39.414Z,30.27
2023-05-07T05:08:08.701Z,31.63
2023-05-07T05:10:36.605Z,24.60
2023-05-07T05:13:04.538Z,25.20
2023-05-07T05:15:33.866Z,27.07
2023-05-07T05:18:01.978Z,21.63
2023-05-07T05:20:29.879Z,26.97
2023-05-07T05:22:57.746Z,22.17
2023-05-07T05:25:27.000Z,29.27
2023-05-07T05:27:54.914Z,19.37
2023-05-07T05:30:23.230Z,18.40
2023-05-07T05:32:51.336Z,19.23
2023-05-07T05:35:19.312Z,22.47
2023-05-07T05:37:47.173Z,22.70
2023-05-07T05:40:15.084Z,31.20
2023-05-07T05:42:44.460Z,20.67
2023-05-07T05:45:12.658Z,18.27
2023-05-07T05:47:40.914Z,22.53
2023-05-07T05:50:10.415Z,18.90
2023-05-07T05:52:38.469Z,20.17
2023-05-07T05:55:07.201Z,26.87
2023-05-07T05:57:35.039Z,19.57
2023-05-07T06:00:05.359Z,26.30
2023-05-07T06:02:33.295Z,15.00
2023-05-07T06:05:01.350Z,16.53
2023-05-07T06:07:29.475Z,18.47
2023-05-07T06:09:57.447Z,23.60
2023-05-07T06:12:25.303Z,15.37
2023-05-07T06:14:53.221Z,18.00
2023-05-07T06:17:22.498Z,12.30
2023-05-07T06:19:50.372Z,15.03
2023-05-07T06:22:18.219Z,19.90
2023-05-07T06:24:46.075Z,14.27
2023-05-07T06:27:13.934Z,16.13
2023-05-07T06:29:41.894Z,18.47
2023-05-07T06:32:10.130Z,19.40
2023-05-07T06:34:39.536Z,19.70
2023-05-07T06:37:07.569Z,16.17
2023-05-07T06:39:35.455Z,26.73
2023-05-07T06:42:03.667Z,19.63
2023-05-07T06:44:31.558Z,24.00
2023-05-07T06:46:59.614Z,22.23
2023-05-07T06:49:27.571Z,18.87
2023-05-07T06:51:56.821Z,22.43
2023-05-07T06:54:24.678Z,19.00
2023-05-07T06:56:52.585Z,22.47
2023-05-07T06:59:21.356Z,19.43
2023-05-07T07:01:49.492Z,21.57
2023-05-07T07:04:17.429Z,19.33
2023-05-07T07:06:45.507Z,20.10
2023-05-07T07:09:14.759Z,22.50
2023-05-07T07:11:42.602Z,16.33
2023-05-07T07:14:10.656Z,19.97
2023-05-07T07:16:38.681Z,18.93
2023-05-07T07:19:06.695Z,17.53
2023-05-07T07:21:34.625Z,16.27
2023-05-07T07:24:02.524Z,17.40
2023-05-07T07:26:32.273Z,33.17
2023-05-07T07:29:00.168Z,23.03
2023-05-07T07:31:28.316Z,18.50
2023-05-07T07:33:56.425Z,17.43
2023-05-07T07:36:29.453Z,12.77
2023-05-07T07:39:09.617Z,22.70
2023-05-07T07:41:38.870Z,15.13
2023-05-07T07:44:08.626Z,15.83
2023-05-07T07:46:36.796Z,19.40
2023-05-07T07:49:04.885Z,16.20
2023-05-07T07:51:32.733Z,17.70
2023-05-07T07:54:01.905Z,18.33
2023-05-07T07:56:29.795Z,16.77
2023-05-07T07:58:59.033Z,17.47
2023-05-07T08:01:27.054Z,14.87
2023-05-07T08:03:55.409Z,10.77
2023-05-07T08:06:23.376Z,10.43
2023-05-07T08:08:51.332Z,11.23
2023-05-07T08:11:19.234Z,15.87
2023-05-07T08:13:47.898Z,12.93
2023-05-07T08:16:17.244Z,9.63
2023-05-07T08:18:45.126Z,10.30
2023-05-07T08:21:13.084Z,9.77
2023-05-07T08:23:40.983Z,6.80
2023-05-07T08:26:10.715Z,5.33
2023-05-07T08:28:38.542Z,7.83
2023-05-07T08:31:06.515Z,6.43
2023-05-07T08:33:35.784Z,9.67
2023-05-07T08:36:03.659Z,13.80
2023-05-07T08:38:31.551Z,6.77
2023-05-07T08:40:59.435Z,5.00
2023-05-07T08:43:28.538Z,7.57
2023-05-07T08:45:56.667Z,8.50
2023-05-07T08:48:26.105Z,11.33
2023-05-07T08:50:55.383Z,7.90
2023-05-07T08:53:23.255Z,6.10
2023-05-07T08:55:51.140Z,2.33
2023-05-07T08:58:19.107Z,7.23
2023-05-07T09:00:47.019Z,2.53
2023-05-07T09:03:15.472Z,6.13
2023-05-07T09:05:44.797Z,5.47
2023-05-07T09:08:16.935Z,3.63
2023-05-07T09:10:44.793Z,4.03
2023-05-07T09:13:14.201Z,3.70
2023-05-07T09:15:42.250Z,3.97
2023-05-07T09:18:10.137Z,4.47
2023-05-07T09:20:38.703Z,4.77
2023-05-07T09:23:06.596Z,6.33
2023-05-07T09:25:37.294Z,3.27
2023-05-07T09:28:05.588Z,4.13
2023-05-07T09:30:34.175Z,3.77
2023-05-07T09:33:03.710Z,2.33
2023-05-07T09:35:32.215Z,5.07
2023-05-07T09:38:03.918Z,3.20
2023-05-07T09:40:33.109Z,4.60
2023-05-07T09:43:12.752Z,5.27
2023-05-07T09:45:40.783Z,3.23
2023-05-07T09:48:09.068Z,2.23
2023-05-07T09:50:38.823Z,1.10
2023-05-07T09:53:06.981Z,3.27
2023-05-07T09:55:35.195Z,1.63
2023-05-07T09:58:03.709Z,1.37
2023-05-07T10:00:33.117Z,2.40
2023-05-07T10:03:01.216Z,2.63
2023-05-07T10:05:29.194Z,1.93
2023-05-07T10:07:58.291Z,1.73
2023-05-07T10:10:26.441Z,5.00
2023-05-07T10:12:54.377Z,2.83
2023-05-07T10:15:22.296Z,3.37
2023-05-07T10:17:51.804Z,4.07
2023-05-07T10:20:19.885Z,4.40
2023-05-07T10:22:49.529Z,4.07
2023-05-07T10:25:20.297Z,4.13
2023-05-07T10:27:48.428Z,6.50
2023-05-07T10:30:27.407Z,5.17
2023-05-07T10:32:57.682Z,5.67
2023-05-07T10:35:26.988Z,6.23
2023-05-07T10:37:54.831Z,7.07
2023-05-07T10:40:22.735Z,9.10
2023-05-07T10:42:57.858Z,5.47
2023-05-07T10:45:26.594Z,8.00
2023-05-07T10:50:43.724Z,6.80
2023-05-07T10:53:27.585Z,6.40
2023-05-07T10:56:38.883Z,5.23
2023-05-07T10:59:42.922Z,6.20
2023-05-07T11:02:12.423Z,4.83
2023-05-07T11:04:42.821Z,4.43
2023-05-07T11:07:40.202Z,7.33
2023-05-07T11:10:09.245Z,5.20
2023-05-07T11:13:04.017Z,4.10
2023-05-07T11:15:43.029Z,7.27
2023-05-07T11:18:11.182Z,4.78
2023-05-07T11:21:05.999Z,4.95
2023-05-07T11:23:59.707Z,6.65
2023-05-07T11:26:28.043Z,3.15
2023-05-07T11:28:56.277Z,6.55
2023-05-07T11:31:29.319Z,3.28
2023-05-07T11:33:57.317Z,3.72
2023-05-07T11:36:27.933Z,2.50
2023-05-07T11:38:55.891Z,4.22
2023-05-07T11:41:23.828Z,8.32
2023-05-07T11:44:01.560Z,2.22
2023-05-07T11:46:30.379Z,2.65
2023-05-07T11:48:58.504Z,2.25
2023-05-07T11:51:28.258Z,3.50
2023-05-07T11:53:56.185Z,2.40
2023-05-07T11:56:24.038Z,4.75
2023-05-07T11:58:53.184Z,3.15
2023-05-07T12:01:21.149Z,3.42
2023-05-07T12:03:49.176Z,2.13
2023-05-07T12:06:17.969Z,3.33
2023-05-07T12:08:48.302Z,2.55
2023-05-07T12:11:18.637Z,3.63
2023-05-07T12:13:47.080Z,3.65
2023-05-07T12:16:15.064Z,4.78
2023-05-07T12:18:43.124Z,4.80
2023-05-07T12:21:11.856Z,1.58
2023-05-07T12:23:39.823Z,2.75
2023-05-07T12:26:09.058Z,3.70
2023-05-07T12:28:40.693Z,2.08
2023-05-07T12:31:08.869Z,2.47
2023-05-07T12:33:37.012Z,3.92
2023-05-07T12:36:06.302Z,3.60
2023-05-07T12:38:37.371Z,3.90
2023-05-07T12:41:05.459Z,2.15
2023-05-07T12:43:34.780Z,4.40
2023-05-07T12:46:04.594Z,6.05
2023-05-07T12:48:33.146Z,2.35
2023-05-07T12:51:01.954Z,2.00
2023-05-07T12:53:32.180Z,3.20
2023-05-07T12:56:01.131Z,3.72
2023-05-07T12:58:29.645Z,7.60
2023-05-07T13:01:01.009Z,2.55
2023-05-07T13:03:29.927Z,1.40
2023-05-07T13:06:00.041Z,3.92
2023-05-07T13:08:29.057Z,1.65
2023-05-07T13:10:57.241Z,1.67
2023-05-07T13:13:25.679Z,3.45
2023-05-07T13:15:53.651Z,2.88
2023-05-07T13:18:23.184Z,1.83
2023-05-07T13:20:51.291Z,2.35
2023-05-07T13:23:19.261Z,2.05
2023-05-07T13:25:47.143Z,2.70
2023-05-07T13:28:14.994Z,4.75
2023-05-07T13:30:42.885Z,1.85
2023-05-07T13:33:11.080Z,1.77
2023-05-07T13:35:40.575Z,3.50
2023-05-07T13:38:08.400Z,1.40
2023-05-07T13:40:36.311Z,2.25
2023-05-07T13:43:04.384Z,1.73
2023-05-07T13:45:32.262Z,2.90
2023-05-07T13:48:00.364Z,3.42
2023-05-07T13:50:30.783Z,1.52
2023-05-07T13:53:00.104Z,2.40
2023-05-07T13:55:28.856Z,2.78
2023-05-07T13:57:58.033Z,1.40
2023-05-07T14:00:26.121Z,2.50
2023-05-07T14:02:54.222Z,3.03
2023-05-07T14:05:24.156Z,2.72
2023-05-07T14:07:52.933Z,5.32
2023-05-07T14:10:22.291Z,1.65
2023-05-07T14:12:50.198Z,4.07
2023-05-07T14:15:18.228Z,3.50
2023-05-07T14:17:46.235Z,3.60
2023-05-07T14:20:14.388Z,1.67
2023-05-07T14:22:42.462Z,2.70
2023-05-07T14:25:11.582Z,1.73
2023-05-07T14:27:40.921Z,2.88
2023-05-07T14:30:10.173Z,3.42
2023-05-07T14:32:38.237Z,2.17
2023-05-07T14:35:06.726Z,4.95
2023-05-07T14:37:34.601Z,1.55
2023-05-07T14:40:02.531Z,3.33
2023-05-07T14:42:30.440Z,8.40
2023-05-07T14:44:59.924Z,2.33
2023-05-07T14:47:27.876Z,1.55
2023-05-07T14:49:56.168Z,2.95
2023-05-07T14:52:24.100Z,4.07
2023-05-07T14:54:52.021Z,3.95
2023-05-07T14:57:20.395Z,4.95
2023-05-07T14:59:49.505Z,2.75
2023-05-07T15:02:21.207Z,3.75
2023-05-07T15:04:49.737Z,5.20
2023-05-07T15:07:18.585Z,2.63
2023-05-07T15:09:46.799Z,6.65
2023-05-07T15:12:14.882Z,6.82
2023-05-07T15:14:43.232Z,4.05
2023-05-07T15:17:11.101Z,5.85
2023-05-07T15:19:40.683Z,8.27
2023-05-07T15:22:08.573Z,4.97
2023-05-07T15:24:36.421Z,7.60
2023-05-07T15:27:04.796Z,6.78
2023-05-07T15:29:32.947Z,3.40
2023-05-07T15:32:00.930Z,6.97
2023-05-07T15:34:28.884Z,6.50
2023-05-07T15:36:59.064Z,4.78
2023-05-07T15:39:27.033Z,8.18
2023-05-07T15:41:54.928Z,6.68
2023-05-07T15:44:22.799Z,9.88
2023-05-07T15:46:50.717Z,4.28
2023-05-07T15:49:18.719Z,6.10
2023-05-07T15:51:46.593Z,4.20
2023-05-07T15:54:17.959Z,4.35
2023-05-07T15:56:45.810Z,5.25
2023-05-07T15:59:15.484Z,3.35
2023-05-07T16:01:43.676Z,4.30
2023-05-07T16:04:11.845Z,4.40
2023-05-07T16:06:41.221Z,6.57
2023-05-07T16:09:10.316Z,5.22
2023-05-07T16:11:39.553Z,6.28
2023-05-07T16:14:07.474Z,8.35
2023-05-07T16:16:35.422Z,4.45
2023-05-07T16:19:03.282Z,7.57
2023-05-07T16:21:31.540Z,5.93
2023-05-07T16:23:59.460Z,5.93
2023-05-07T16:26:27.465Z,2.80
2023-05-07T16:28:56.999Z,4.93
2023-05-07T16:31:25.858Z,5.17
2023-05-07T16:33:53.754Z,3.47
2023-05-07T16:36:21.773Z,6.65
2023-05-07T16:38:49.685Z,4.95
2023-05-07T16:41:17.602Z,9.03
2023-05-07T16:43:45.473Z,3.83
2023-05-07T16:46:14.786Z,8.97
2023-05-07T16:48:43.222Z,11.87
2023-05-07T16:51:11.128Z,5.93
2023-05-07T16:53:39.035Z,4.67
2023-05-07T16:56:07.046Z,6.30
2023-05-07T16:58:34.909Z,6.27
2023-05-07T17:01:03.857Z,10.23
2023-05-07T17:03:33.366Z,6.57
2023-05-07T17:06:01.303Z,7.63
2023-05-07T17:08:29.218Z,8.10
2023-05-07T17:10:57.155Z,6.53
2023-05-07T17:13:25.252Z,3.17
2023-05-07T17:15:53.504Z,13.57
2023-05-07T17:18:21.406Z,3.77
2023-05-07T17:20:50.732Z,6.33
2023-05-07T17:23:18.724Z,6.67
2023-05-07T17:25:46.579Z,5.70
2023-05-07T17:28:14.530Z,6.97
2023-05-07T17:30:42.596Z,3.83
2023-05-07T17:33:21.043Z,3.53
2023-05-07T17:35:51.509Z,4.63
2023-05-07T17:38:19.413Z,6.90
2023-05-07T17:40:47.314Z,6.73
2023-05-07T17:43:15.300Z,4.20
2023-05-07T17:45:43.238Z,5.97
2023-05-07T17:48:11.177Z,3.50
2023-05-07T17:50:39.150Z,13.07
2023-05-07T17:53:09.903Z,5.77
2023-05-07T17:55:40.465Z,2.63
2023-05-07T17:58:09.868Z,5.70
2023-05-07T18:00:37.806Z,16.87
2023-05-07T18:03:06.138Z,9.00
2023-05-07T18:05:36.783Z,6.03
2023-05-07T18:08:04.746Z,5.23
2023-05-07T18:10:33.979Z,7.20
2023-05-07T18:13:01.887Z,4.03
2023-05-07T18:15:29.851Z,7.07
2023-05-07T18:17:57.757Z,7.50
2023-05-07T18:20:32.515Z,3.50
2023-05-07T18:23:00.654Z,4.83
2023-05-07T18:25:28.513Z,4.43
2023-05-07T18:27:57.796Z,7.40
2023-05-07T18:30:25.645Z,4.37
2023-05-07T18:32:53.619Z,2.93
2023-05-07T18:35:21.485Z,9.50
2023-05-07T18:37:49.351Z,7.53
2023-05-07T18:40:17.455Z,9.33
2023-05-07T18:42:45.350Z,9.37
2023-05-07T18:45:15.007Z,12.27
2023-05-07T18:47:42.906Z,6.57
2023-05-07T18:50:11.802Z,7.57
2023-05-07T18:52:39.921Z,9.95
2023-05-07T18:55:09.574Z,5.83
2023-05-07T18:57:37.428Z,17.97
2023-05-07T19:00:09.304Z,7.77
2023-05-07T19:02:39.352Z,5.20
2023-05-07T19:05:08.141Z,3.47
2023-05-07T19:07:36.049Z,5.23
2023-05-07T19:10:06.012Z,9.47
2023-05-07T19:12:34.206Z,11.43
2023-05-07T19:15:02.251Z,9.83
2023-05-07T19:17:30.308Z,6.23
2023-05-07T19:19:59.647Z,3.60
2023-05-07T19:22:27.549Z,8.03
2023-05-07T19:24:55.422Z,4.10
2023-05-07T19:27:23.322Z,4.20
2023-05-07T19:29:51.223Z,7.40
2023-05-07T19:32:20.159Z,6.60
2023-05-07T19:34:48.070Z,4.67
2023-05-07T19:37:17.337Z,7.07
2023-05-07T19:39:45.188Z,5.30
2023-05-07T19:42:14.205Z,7.43
2023-05-07T19:44:42.148Z,3.47
2023-05-07T19:47:10.052Z,7.23
2023-05-07T19:49:37.968Z,2.30
2023-05-07T19:52:06.298Z,4.43
2023-05-07T19:54:35.546Z,8.67
2023-05-07T19:57:03.433Z,5.43
2023-05-07T19:59:31.533Z,10.10
2023-05-07T20:01:59.574Z,3.77
2023-05-07T20:04:31.859Z,6.70
2023-05-07T20:07:00.070Z,6.50
2023-05-07T20:09:27.918Z,10.97
2023-05-07T20:11:57.740Z,11.17
2023-05-07T20:14:25.727Z,10.80
2023-05-07T20:16:53.819Z,13.13
2023-05-07T20:19:21.698Z,17.37
2023-05-07T20:21:49.586Z,6.93
2023-05-07T20:24:19.190Z,9.37
2023-05-07T20:26:47.150Z,6.00
2023-05-07T20:29:16.421Z,5.30
2023-05-07T20:31:44.396Z,7.37
2023-05-07T20:34:12.389Z,3.33
2023-05-07T20:36:40.258Z,4.20
2023-05-07T20:39:08.357Z,3.60
2023-05-07T20:41:36.222Z,1.97
2023-05-07T20:44:04.107Z,4.40
2023-05-07T20:46:33.374Z,3.90
2023-05-07T20:49:01.499Z,6.40
2023-05-07T20:51:29.357Z,4.13
2023-05-07T20:53:57.227Z,3.20
2023-05-07T20:56:25.140Z,3.87
2023-05-07T20:58:53.244Z,8.43
2023-05-07T21:01:21.129Z,4.83
2023-05-07T21:03:53.871Z,4.37
2023-05-07T21:06:21.787Z,7.50
2023-05-07T21:08:49.632Z,8.90
2023-05-07T21:11:18.148Z,4.27
2023-05-07T21:13:46.114Z,4.97
2023-05-07T21:16:14.049Z,7.13
2023-05-07T21:18:42.015Z,5.20
2023-05-07T21:21:11.419Z,9.70
2023-05-07T21:23:39.320Z,5.27
2023-05-07T21:26:07.402Z,4.20
2023-05-07T21:28:35.247Z,6.10
2023-05-07T21:31:03.098Z,4.20
2023-05-07T21:33:30.958Z,3.63
2023-05-07T21:35:58.871Z,6.57
2023-05-07T21:38:28.206Z,5.00
2023-05-07T21:40:56.070Z,8.07
2023-05-07T21:43:23.944Z,9.00
2023-05-07T21:45:51.849Z,6.07
2023-05-07T21:48:22.076Z,6.10
2023-05-07T21:50:50.002Z,4.27
2023-05-07T21:53:17.880Z,4.37
2023-05-07T21:55:47.087Z,5.80
2023-05-07T21:58:15.119Z,9.03
2023-05-07T22:00:43.013Z,9.47
2023-05-07T22:03:10.971Z,10.30
2023-05-07T22:05:38.934Z,6.60
2023-05-07T22:08:06.828Z,12.63
2023-05-07T22:10:34.836Z,7.53
2023-05-07T22:13:04.203Z,11.97
2023-05-07T22:15:35.274Z,10.17
2023-05-07T22:18:05.328Z,7.67
2023-05-07T22:20:33.239Z,10.57
2023-05-07T22:23:01.132Z,6.70
2023-05-07T22:25:32.500Z,8.77
2023-05-07T22:28:00.483Z,7.67
2023-05-07T22:30:29.884Z,7.07
2023-05-07T22:32:57.786Z,11.17
2023-05-07T22:35:25.708Z,7.97
2023-05-07T22:37:53.627Z,9.40
2023-05-07T22:40:21.603Z,6.13
2023-05-07T22:42:49.478Z,10.83
2023-05-07T22:45:17.323Z,9.47
2023-05-07T22:47:46.665Z,10.47
2023-05-07T22:50:14.701Z,6.67
2023-05-07T22:52:42.963Z,7.17
2023-05-07T22:55:11.171Z,5.70
2023-05-07T22:57:39.062Z,7.37
2023-05-07T23:00:08.017Z,10.77
2023-05-07T23:02:36.183Z,8.73
2023-05-07T23:05:06.054Z,7.37
2023-05-07T23:07:33.933Z,10.73
2023-05-07T23:10:01.860Z,7.83
2023-05-07T23:12:29.704Z,9.40
2023-05-07T23:14:57.807Z,8.23
2023-05-07T23:17:25.793Z,6.07
2023-05-07T23:19:53.753Z,13.17
2023-05-07T23:22:22.981Z,7.30
2023-05-07T23:24:50.883Z,6.27
2023-05-07T23:27:18.737Z,6.13
2023-05-07T23:29:46.968Z,6.53
2023-05-07T23:32:14.849Z,7.63
2023-05-07T23:34:42.732Z,6.30
2023-05-07T23:37:10.666Z,8.63
2023-05-07T23:39:39.990Z,9.17
2023-05-07T23:42:07.907Z,4.93
2023-05-07T23:44:35.781Z,9.67
2023-05-07T23:47:03.683Z,12.93
2023-05-07T23:49:31.601Z,4.20
2023-05-07T23:51:59.495Z,9.60
2023-05-07T23:54:27.359Z,9.57
2023-05-07T23:56:56.605Z,8.93
2023-05-07T23:59:24.504Z,8.70
